Time;durP1;ratioP1;P1;durP2;ratioP2;P2;SDS_P1;SDS_P2;PMS_P1;PMS_P2;Temp;Humidity;BMP_temperature;BMP_pressure;BME280_temperature;BME280_humidity;BME280_pressure;Samples;Min_cycle;Max_cycle;Signal;HPM_P1;HPM_P2
2022/02/19 00:02:16;;;;;;;2.55;1.35;;;;;;;;;;6240154;23;20019;-80
2022/02/19 00:05:03;;;;;;;1.27;1.17;;;;;;;;;;6238476;23;20020;-80
2022/02/19 00:08:41;;;;;;;0.80;0.80;;;;;;;;;;4728790;27;10107244;-89
2022/02/19 00:12:13;;;;;;;1.17;1.17;;;;;;;;;;5036875;28;20037;-88
2022/02/19 00:14:55;;;;;;;0.70;0.70;;;;;;;;;;5028856;28;20056;-88
2022/02/19 00:17:41;;;;;;;1.13;0.82;;;;;;;;;;5026674;28;20037;-87
2022/02/19 00:20:30;;;;;;;4.15;0.95;;;;;;;;;;5042316;28;20038;-90
2022/02/19 00:23:18;;;;;;;0.93;0.73;;;;;;;;;;5026058;28;20103;-88
2022/02/19 00:26:14;;;;;;;0.73;0.73;;;;;;;;;;5044811;28;20046;-89
2022/02/19 00:28:57;;;;;;;0.80;0.80;;;;;;;;;;5028857;28;20494;-87
2022/02/19 00:31:47;;;;;;;0.90;0.90;;;;;;;;;;5042210;28;20049;-83
2022/02/19 00:34:34;;;;;;;0.80;0.80;;;;;;;;;;5052607;28;20429;-85
2022/02/19 00:37:16;;;;;;;1.00;1.00;;;;;;;;;;5064572;28;20045;-83
2022/02/19 00:40:01;;;;;;;0.70;0.70;;;;;;;;;;5063719;28;20048;-84
2022/02/19 00:42:53;;;;;;;0.80;0.80;;;;;;;;;;5048729;28;20053;-85
2022/02/19 00:45:35;;;;;;;3.55;1.13;;;;;;;;;;5033796;28;20044;-90
2022/02/19 00:48:23;;;;;;;2.55;1.10;;;;;;;;;;5063442;28;20045;-91
2022/02/19 00:51:25;;;;;;;5.50;1.02;;;;;;;;;;5060985;28;20040;-88
2022/02/19 00:54:10;;;;;;;1.33;1.23;;;;;;;;;;5052908;28;20136;-90
2022/02/19 00:56:54;;;;;;;0.90;0.90;;;;;;;;;;5054580;28;20056;-89
2022/02/19 00:59:44;;;;;;;2.70;1.90;;;;;;;;;;5064542;28;20037;-91
2022/02/19 01:02:31;;;;;;;2.58;1.13;;;;;;;;;;5063541;28;20501;-85
2022/02/19 01:05:22;;;;;;;0.82;0.75;;;;;;;;;;5065794;28;20063;-90
2022/02/19 01:08:01;;;;;;;1.10;1.08;;;;;;;;;;5083440;28;20081;-87
2022/02/19 01:10:51;;;;;;;1.95;0.90;;;;;;;;;;5083432;28;20044;-84
2022/02/19 01:13:37;;;;;;;2.55;1.20;;;;;;;;;;5083454;28;20536;-90
2022/02/19 01:16:21;;;;;;;1.23;1.17;;;;;;;;;;5084496;28;20040;-86
2022/02/19 01:19:08;;;;;;;1.55;1.05;;;;;;;;;;5072039;28;20051;-83
2022/02/19 01:22:00;;;;;;;2.58;1.25;;;;;;;;;;5032217;28;20052;-89
2022/02/19 01:24:44;;;;;;;2.05;1.52;;;;;;;;;;5072209;28;20485;-87
2022/02/19 01:27:26;;;;;;;0.93;0.93;;;;;;;;;;5069732;28;20397;-91
2022/02/19 01:30:13;;;;;;;0.70;0.70;;;;;;;;;;5069522;28;20040;-92
2022/02/19 01:33:05;;;;;;;9.43;1.23;;;;;;;;;;5059806;28;20037;-89
2022/02/19 01:35:48;;;;;;;1.38;0.93;;;;;;;;;;5047055;28;20033;-92
2022/02/19 01:38:32;;;;;;;1.20;0.90;;;;;;;;;;5027005;28;20045;-87
2022/02/19 01:41:22;;;;;;;0.68;0.68;;;;;;;;;;5048734;28;20581;-89
2022/02/19 01:44:09;;;;;;;2.47;0.85;;;;;;;;;;5040215;28;20045;-90
2022/02/19 01:46:58;;;;;;;1.25;1.15;;;;;;;;;;5071411;28;20044;-86
2022/02/19 01:49:49;;;;;;;0.93;0.93;;;;;;;;;;5020771;28;20052;-89
2022/02/19 01:52:36;;;;;;;3.33;1.95;;;;;;;;;;5031028;28;20052;-89
2022/02/19 01:55:23;;;;;;;2.38;2.28;;;;;;;;;;5039663;28;20505;-90
2022/02/19 01:58:32;;;;;;;3.55;1.17;;;;;;;;;;5042912;28;20068;-90
2022/02/19 02:01:33;;;;;;;1.70;0.80;;;;;;;;;;5037375;28;20052;-92
2022/02/19 02:04:52;;;;;;;2.75;1.40;;;;;;;;;;5030066;28;20501;-92
2022/02/19 02:07:36;;;;;;;1.75;1.25;;;;;;;;;;5061072;28;20498;-90
2022/02/19 02:10:18;;;;;;;0.82;0.82;;;;;;;;;;5056659;28;20053;-88
2022/02/19 02:12:58;;;;;;;1.00;1.00;;;;;;;;;;5028708;28;20053;-89
2022/02/19 02:15:44;;;;;;;0.90;0.90;;;;;;;;;;5033824;28;20052;-87
2022/02/19 02:18:48;;;;;;;0.77;0.77;;;;;;;;;;5066239;28;20044;-80
2022/02/19 02:21:32;;;;;;;0.70;0.70;;;;;;;;;;5069985;28;20500;-80
2022/02/19 02:24:17;;;;;;;2.15;1.52;;;;;;;;;;5070368;28;20040;-91
2022/02/19 02:27:02;;;;;;;1.38;1.00;;;;;;;;;;5064023;28;20039;-91
2022/02/19 02:29:48;;;;;;;29.80;2.00;;;;;;;;;;5068397;28;20049;-92
2022/02/19 02:32:34;;;;;;;1.95;1.13;;;;;;;;;;5050097;28;20037;-90
2022/02/19 02:35:19;;;;;;;0.95;0.95;;;;;;;;;;5054751;28;20486;-91
2022/02/19 02:38:03;;;;;;;0.70;0.70;;;;;;;;;;5054871;28;20045;-91
2022/02/19 02:40:45;;;;;;;1.33;1.33;;;;;;;;;;5052690;28;20041;-89
2022/02/19 02:43:29;;;;;;;1.33;1.23;;;;;;;;;;5068306;28;20539;-89
2022/02/19 02:46:13;;;;;;;4.55;1.15;;;;;;;;;;5086219;28;20051;-87
2022/02/19 02:48:51;;;;;;;3.80;0.85;;;;;;;;;;5068649;28;20055;-88
2022/02/19 02:51:35;;;;;;;1.02;0.80;;;;;;;;;;5052744;28;20052;-90
2022/02/19 02:54:17;;;;;;;4.78;0.93;;;;;;;;;;5069710;28;20040;-89
2022/02/19 02:56:57;;;;;;;1.10;1.05;;;;;;;;;;5029334;28;20068;-90
2022/02/19 02:59:32;;;;;;;0.68;0.68;;;;;;;;;;5049662;28;20363;-89
2022/02/19 03:02:21;;;;;;;1.20;1.17;;;;;;;;;;5052310;28;20049;-91
2022/02/19 03:05:17;;;;;;;0.93;0.88;;;;;;;;;;5049251;28;20041;-89
2022/02/19 03:08:01;;;;;;;0.80;0.80;;;;;;;;;;5049483;28;20041;-90
2022/02/19 03:10:43;;;;;;;0.77;0.77;;;;;;;;;;5069502;28;20048;-90
2022/02/19 03:13:23;;;;;;;1.23;1.23;;;;;;;;;;5068837;28;20052;-93
2022/02/19 03:16:08;;;;;;;11.27;1.33;;;;;;;;;;5053254;28;20049;-89
2022/02/19 03:19:01;;;;;;;1.33;0.70;;;;;;;;;;5053155;28;20059;-88
2022/02/19 03:21:43;;;;;;;1.15;1.10;;;;;;;;;;5068223;28;20059;-90
2022/02/19 03:24:26;;;;;;;1.70;1.20;;;;;;;;;;5043748;28;20037;-92
2022/02/19 03:27:06;;;;;;;2.60;0.95;;;;;;;;;;5049730;28;20167;-90
2022/02/19 03:29:46;;;;;;;2.42;2.13;;;;;;;;;;5076283;28;20047;-89
2022/02/19 03:32:27;;;;;;;0.77;0.77;;;;;;;;;;5031005;28;20375;-89
2022/02/19 03:35:07;;;;;;;2.45;2.35;;;;;;;;;;5055254;28;20033;-90
2022/02/19 03:37:49;;;;;;;0.90;0.90;;;;;;;;;;5047883;28;20064;-86
2022/02/19 03:40:44;;;;;;;2.50;1.40;;;;;;;;;;5064344;28;20048;-87
2022/02/19 03:43:28;;;;;;;5.00;1.20;;;;;;;;;;5054982;28;20728;-89
2022/02/19 03:46:12;;;;;;;3.35;1.17;;;;;;;;;;5031901;28;20525;-82
2022/02/19 03:49:08;;;;;;;4.88;0.95;;;;;;;;;;5047602;28;20045;-91
2022/02/19 03:51:52;;;;;;;6.93;1.73;;;;;;;;;;5060017;28;20498;-91
2022/02/19 03:54:36;;;;;;;0.75;0.75;;;;;;;;;;5032954;28;20495;-92
2022/02/19 03:57:21;;;;;;;0.73;0.73;;;;;;;;;;5047522;28;20048;-91
2022/02/19 04:00:11;;;;;;;0.70;0.70;;;;;;;;;;5031536;28;20037;-90
2022/02/19 04:02:57;;;;;;;0.90;0.90;;;;;;;;;;5042775;28;20370;-91
2022/02/19 04:05:42;;;;;;;5.53;1.23;;;;;;;;;;5053061;28;20494;-88
2022/02/19 04:08:26;;;;;;;0.80;0.80;;;;;;;;;;5001957;28;20057;-86
2022/02/19 04:11:12;;;;;;;0.90;0.90;;;;;;;;;;5015547;28;20503;-90
2022/02/19 04:13:56;;;;;;;0.60;0.60;;;;;;;;;;5039421;28;20478;-89
2022/02/19 04:16:50;;;;;;;0.70;0.70;;;;;;;;;;5029528;28;20563;-89
2022/02/19 04:19:35;;;;;;;1.75;1.08;;;;;;;;;;5008777;28;20054;-90
2022/02/19 04:22:18;;;;;;;0.60;0.60;;;;;;;;;;5008869;28;20693;-90
2022/02/19 04:24:59;;;;;;;0.70;0.70;;;;;;;;;;5002353;28;20053;-90
2022/02/19 04:27:39;;;;;;;;;;;;;;;;;;5011391;28;20049;-89
2022/02/19 04:30:20;;;;;;;0.80;0.80;;;;;;;;;;5027806;28;19925;-91
2022/02/19 04:33:07;;;;;;;0.60;0.60;;;;;;;;;;5034420;28;20045;-91
2022/02/19 04:35:54;;;;;;;0.98;0.98;;;;;;;;;;5036294;28;20045;-89
2022/02/19 04:38:47;;;;;;;0.70;0.70;;;;;;;;;;5027495;28;20057;-90
2022/02/19 04:41:43;;;;;;;10.93;1.30;;;;;;;;;;5041196;28;20038;-90
2022/02/19 04:44:40;;;;;;;2.67;0.90;;;;;;;;;;5027354;28;20048;-90
2022/02/19 04:47:24;;;;;;;0.90;0.90;;;;;;;;;;5025856;28;20054;-90
2022/02/19 04:50:13;;;;;;;2.58;1.40;;;;;;;;;;5027887;28;20065;-90
2022/02/19 04:53:06;;;;;;;0.88;0.82;;;;;;;;;;5028424;28;20048;-90
2022/02/19 04:56:02;;;;;;;0.75;0.75;;;;;;;;;;5012041;28;20054;-88
2022/02/19 04:58:46;;;;;;;2.88;1.23;;;;;;;;;;5023163;28;20049;-90
2022/02/19 05:01:28;;;;;;;0.90;0.90;;;;;;;;;;5022734;28;20038;-88
2022/02/19 05:04:21;;;;;;;1.20;1.00;;;;;;;;;;5025914;28;20042;-90
2022/02/19 05:07:09;;;;;;;1.00;1.00;;;;;;;;;;5043853;28;20813;-90
2022/02/19 05:10:24;;;;;;;4.13;1.45;;;;;;;;;;5054278;28;20045;-91
2022/02/19 05:13:23;;;;;;;0.85;0.85;;;;;;;;;;5070573;28;20052;-90
2022/02/19 05:16:05;;;;;;;0.80;0.80;;;;;;;;;;5045105;28;20049;-89
2022/02/19 05:18:58;;;;;;;0.95;0.82;;;;;;;;;;5031171;28;20045;-91
2022/02/19 05:21:46;;;;;;;1.27;1.17;;;;;;;;;;5051323;28;20398;-90
2022/02/19 05:24:32;;;;;;;7.95;1.05;;;;;;;;;;5047900;28;20048;-90
2022/02/19 05:27:22;;;;;;;0.88;0.88;;;;;;;;;;5071144;28;20056;-91
2022/02/19 05:30:16;;;;;;;0.80;0.80;;;;;;;;;;5069734;28;20052;-90
2022/02/19 05:33:25;;;;;;;1.30;0.80;;;;;;;;;;5052936;28;20952;-91
2022/02/19 05:36:13;;;;;;;3.08;1.15;;;;;;;;;;5056470;28;20052;-90
2022/02/19 05:38:54;;;;;;;1.73;0.90;;;;;;;;;;5072298;28;20056;-89
2022/02/19 05:41:40;;;;;;;5.78;1.17;;;;;;;;;;5071665;28;20048;-89
2022/02/19 05:44:33;;;;;;;1.33;1.33;;;;;;;;;;5071654;28;20043;-91
2022/02/19 05:47:16;;;;;;;0.93;0.90;;;;;;;;;;5071601;28;20044;-89
2022/02/19 05:50:16;;;;;;;2.22;1.10;;;;;;;;;;5066576;28;20061;-88
2022/02/19 05:53:08;;;;;;;7.55;1.83;;;;;;;;;;5071734;28;20050;-88
2022/02/19 05:55:53;;;;;;;1.77;1.52;;;;;;;;;;5071171;28;20051;-90
2022/02/19 05:58:35;;;;;;;4.78;0.90;;;;;;;;;;5070637;28;20043;-91
2022/02/19 06:01:30;;;;;;;1.60;1.60;;;;;;;;;;5070740;28;20497;-91
2022/02/19 06:04:23;;;;;;;1.15;1.15;;;;;;;;;;5071357;28;20033;-90
2022/02/19 06:07:13;;;;;;;0.65;0.65;;;;;;;;;;5071754;28;20064;-89
2022/02/19 06:09:55;;;;;;;3.05;1.35;;;;;;;;;;5068891;28;20045;-90
2022/02/19 06:12:45;;;;;;;4.22;1.38;;;;;;;;;;5053979;28;20036;-92
2022/02/19 06:15:31;;;;;;;4.70;1.67;;;;;;;;;;5071159;28;20059;-91
2022/02/19 06:18:26;;;;;;;2.28;1.10;;;;;;;;;;5057093;28;20537;-89
2022/02/19 06:21:10;;;;;;;1.52;1.42;;;;;;;;;;5046055;28;20060;-86
2022/02/19 06:23:52;;;;;;;4.78;1.20;;;;;;;;;;5068201;28;20040;-89
2022/02/19 06:26:38;;;;;;;4.18;3.85;;;;;;;;;;5070354;28;20482;-89
2022/02/19 06:29:43;;;;;;;3.00;1.45;;;;;;;;;;5063754;28;20044;-89
2022/02/19 06:32:32;;;;;;;4.35;2.20;;;;;;;;;;5070033;28;20029;-90
2022/02/19 06:35:13;;;;;;;1.20;1.20;;;;;;;;;;5070155;28;20041;-89
2022/02/19 06:37:51;;;;;;;3.90;1.58;;;;;;;;;;5034534;28;20827;-86
2022/02/19 06:40:48;;;;;;;7.75;1.60;;;;;;;;;;5060990;28;20037;-88
2022/02/19 06:43:35;;;;;;;3.65;1.95;;;;;;;;;;5050575;28;20040;-91
2022/02/19 06:46:20;;;;;;;4.00;1.80;;;;;;;;;;5051564;28;20501;-93
2022/02/19 06:49:06;;;;;;;3.35;2.35;;;;;;;;;;5077236;28;20049;-91
2022/02/19 06:51:51;;;;;;;5.63;1.27;;;;;;;;;;5044559;28;20048;-89
2022/02/19 06:54:32;;;;;;;1.60;1.50;;;;;;;;;;5069871;28;20053;-90
2022/02/19 06:57:16;;;;;;;5.32;1.83;;;;;;;;;;5065302;28;20478;-90
2022/02/19 06:59:56;;;;;;;;;;;;;;;;;;5061950;28;20052;-88
2022/02/19 07:02:32;;;;;;;1.35;1.25;;;;;;;;;;5047091;28;19940;-90
2022/02/19 07:05:13;;;;;;;1.35;1.17;;;;;;;;;;5049122;28;20056;-88
2022/02/19 07:08:16;;;;;;;1.85;1.75;;;;;;;;;;5044321;28;20053;-89
2022/02/19 07:10:59;;;;;;;4.97;1.95;;;;;;;;;;5036282;28;20056;-89
2022/02/19 07:13:44;;;;;;;2.78;1.27;;;;;;;;;;5045333;28;20053;-89
2022/02/19 07:16:23;;;;;;;4.05;2.22;;;;;;;;;;5048627;28;20045;-90
2022/02/19 07:19:07;;;;;;;2.90;1.55;;;;;;;;;;5050094;28;20047;-91
2022/02/19 07:21:46;;;;;;;;;;;;;;;;;;5049529;28;20044;-91
2022/02/19 07:24:30;;;;;;;3.78;1.23;;;;;;;;;;5049197;28;19927;-92
2022/02/19 07:27:27;;;;;;;3.22;1.80;;;;;;;;;;5039350;28;20060;-89
2022/02/19 07:30:17;;;;;;;9.73;2.22;;;;;;;;;;5019178;28;20044;-91
2022/02/19 07:32:59;;;;;;;6.68;2.13;;;;;;;;;;5058887;28;20040;-90
2022/02/19 07:35:52;;;;;;;3.28;2.50;;;;;;;;;;5061163;28;20044;-91
2022/02/19 07:38:39;;;;;;;7.72;3.38;;;;;;;;;;5043674;28;20055;-90
2022/02/19 07:41:21;;;;;;;5.93;1.15;;;;;;;;;;5042676;28;20049;-90
2022/02/19 07:44:19;;;;;;;1.00;1.00;;;;;;;;;;5065087;28;20059;-90
2022/02/19 07:47:31;;;;;;;3.97;1.80;;;;;;;;;;5060259;28;20048;-90
2022/02/19 08:00:32;;;;;;;2.17;1.30;;;;;;;;;;5043361;28;20045;-79
2022/02/19 08:03:23;;;;;;;3.15;1.92;;;;;;;;;;5038163;28;20072;-79
2022/02/19 08:06:09;;;;;;;6.53;1.90;;;;;;;;;;5020090;28;20505;-80
2022/02/19 08:08:51;;;;;;;7.88;3.60;;;;;;;;;;5046606;28;20457;-79
2022/02/19 08:11:40;;;;;;;1.75;1.00;;;;;;;;;;5047201;28;20057;-81
2022/02/19 08:14:21;;;;;;;2.88;1.52;;;;;;;;;;5048445;28;20064;-81
2022/02/19 08:17:29;;;;;;;3.08;2.05;;;;;;;;;;5047178;28;20048;-80
2022/02/19 08:20:12;;;;;;;9.82;2.10;;;;;;;;;;5048269;28;20037;-80
2022/02/19 08:23:04;;;;;;;7.05;1.88;;;;;;;;;;5027429;28;20049;-80
2022/02/19 08:25:43;;;;;;;;;;;;;;;;;;5027274;28;20498;-81
2022/02/19 08:28:42;;;;;;;15.02;3.50;;;;;;;;;;5029524;28;19929;-82
2022/02/19 08:31:29;;;;;;;7.15;2.38;;;;;;;;;;5042044;28;20049;-84
2022/02/19 08:34:13;;;;;;;1.58;1.48;;;;;;;;;;5042751;28;20076;-81
2022/02/19 08:36:56;;;;;;;5.45;2.15;;;;;;;;;;5018915;28;20038;-79
2022/02/19 08:39:50;;;;;;;4.00;1.15;;;;;;;;;;5015030;28;20033;-79
2022/02/19 08:42:42;;;;;;;1.95;1.85;;;;;;;;;;5030699;28;20046;-77
2022/02/19 08:45:41;;;;;;;4.50;2.13;;;;;;;;;;5027118;28;20042;-79
2022/02/19 08:48:28;;;;;;;5.18;2.38;;;;;;;;;;5032064;28;20390;-79
2022/02/19 08:51:12;;;;;;;3.25;1.58;;;;;;;;;;5032826;28;20052;-79
2022/02/19 08:53:59;;;;;;;8.93;2.85;;;;;;;;;;5014110;28;20037;-77
2022/02/19 08:56:56;;;;;;;5.88;2.30;;;;;;;;;;5038282;28;20056;-76
2022/02/19 08:59:44;;;;;;;2.72;2.47;;;;;;;;;;5049444;28;20059;-80
2022/02/19 09:02:30;;;;;;;14.43;2.20;;;;;;;;;;5048749;28;20410;-78
2022/02/19 09:05:15;;;;;;;3.10;1.88;;;;;;;;;;5024619;28;20056;-83
2022/02/19 09:08:01;;;;;;;4.30;1.95;;;;;;;;;;5029399;28;20057;-80
2022/02/19 09:10:51;;;;;;;2.10;1.92;;;;;;;;;;5013448;28;20050;-78
2022/02/19 09:13:40;;;;;;;6.22;1.90;;;;;;;;;;5027565;28;20061;-79
2022/02/19 09:16:25;;;;;;;3.92;1.85;;;;;;;;;;5030201;28;20044;-80
2022/02/19 09:19:21;;;;;;;3.72;1.73;;;;;;;;;;5026143;28;20060;-79
2022/02/19 09:22:11;;;;;;;2.63;2.15;;;;;;;;;;5038678;28;20543;-80
2022/02/19 09:24:58;;;;;;;3.75;1.90;;;;;;;;;;5069668;28;20048;-82
2022/02/19 09:27:42;;;;;;;5.07;2.03;;;;;;;;;;5064478;28;20041;-81
2022/02/19 09:30:22;;;;;;;3.10;1.35;;;;;;;;;;5050484;28;20128;-80
2022/02/19 09:33:04;;;;;;;1.95;1.30;;;;;;;;;;5051248;28;20041;-82
2022/02/19 09:35:49;;;;;;;4.38;2.75;;;;;;;;;;5049685;28;20041;-78
2022/02/19 09:38:41;;;;;;;3.33;1.67;;;;;;;;;;5050777;28;20068;-81
2022/02/19 09:41:24;;;;;;;1.77;1.65;;;;;;;;;;5034606;28;20045;-79
2022/02/19 09:44:07;;;;;;;1.52;1.40;;;;;;;;;;5030492;28;20041;-79
2022/02/19 09:46:53;;;;;;;1.98;1.73;;;;;;;;;;5015798;28;20053;-81
2022/02/19 09:49:36;;;;;;;2.22;1.30;;;;;;;;;;5029501;28;20498;-82
2022/02/19 09:52:19;;;;;;;2.20;1.70;;;;;;;;;;5040046;28;20502;-79
2022/02/19 09:55:03;;;;;;;9.02;1.45;;;;;;;;;;5047345;28;20060;-80
2022/02/19 09:57:48;;;;;;;2.75;1.63;;;;;;;;;;5025613;28;20050;-78
2022/02/19 10:00:39;;;;;;;7.22;1.42;;;;;;;;;;5041043;28;20045;-79
2022/02/19 10:03:26;;;;;;;6.20;2.35;;;;;;;;;;5029176;28;20046;-80
2022/02/19 10:06:14;;;;;;;6.40;1.95;;;;;;;;;;5029195;28;20045;-78
2022/02/19 10:09:22;;;;;;;1.10;1.10;;;;;;;;;;5028703;28;20049;-78
2022/02/19 10:12:10;;;;;;;6.28;2.65;;;;;;;;;;5034652;28;20696;-77
2022/02/19 10:14:51;;;;;;;7.53;1.65;;;;;;;;;;5046270;28;20498;-80
2022/02/19 10:17:33;;;;;;;4.53;1.55;;;;;;;;;;5047710;28;20048;-78
2022/02/19 10:20:17;;;;;;;2.72;1.58;;;;;;;;;;5044271;28;20044;-80
2022/02/19 10:23:15;;;;;;;3.45;1.52;;;;;;;;;;5048762;28;20490;-78
2022/02/19 10:26:02;;;;;;;2.70;1.48;;;;;;;;;;5044558;28;20049;-80
2022/02/19 10:28:59;;;;;;;3.55;1.27;;;;;;;;;;5039727;28;20496;-79
2022/02/19 10:31:59;;;;;;;3.03;1.20;;;;;;;;;;5030074;28;20042;-79
2022/02/19 10:34:56;;;;;;;3.75;1.38;;;;;;;;;;5029795;28;20041;-79
2022/02/19 10:37:50;;;;;;;7.45;1.85;;;;;;;;;;5009623;28;20050;-81
2022/02/19 10:40:59;;;;;;;2.13;1.42;;;;;;;;;;5021407;28;20041;-80
2022/02/19 10:43:43;;;;;;;2.50;1.55;;;;;;;;;;5028964;28;20053;-79
2022/02/19 10:46:36;;;;;;;2.47;1.70;;;;;;;;;;5036380;28;20049;-78
2022/02/19 10:49:25;;;;;;;1.42;1.33;;;;;;;;;;5037626;28;20041;-79
2022/02/19 10:52:17;;;;;;;9.70;2.27;;;;;;;;;;5043875;28;20044;-78
2022/02/19 10:55:11;;;;;;;3.03;1.08;;;;;;;;;;5036437;28;20292;-87
2022/02/19 10:58:02;;;;;;;3.90;1.88;;;;;;;;;;5055671;28;20613;-89
2022/02/19 11:00:56;;;;;;;1.67;1.48;;;;;;;;;;5014892;28;20065;-88
2022/02/19 11:03:41;;;;;;;1.45;1.02;;;;;;;;;;5007986;28;20034;-78
2022/02/19 11:06:25;;;;;;;3.70;1.70;;;;;;;;;;5017269;28;20042;-81
2022/02/19 11:09:21;;;;;;;1.48;1.30;;;;;;;;;;5018264;28;20041;-79
2022/02/19 11:12:05;;;;;;;6.22;1.77;;;;;;;;;;5024132;28;20037;-80
2022/02/19 11:14:50;;;;;;;7.35;1.38;;;;;;;;;;5013881;28;20056;-80
2022/02/19 11:17:36;;;;;;;4.78;2.25;;;;;;;;;;5036393;28;20037;-80
2022/02/19 11:20:25;;;;;;;1.63;1.52;;;;;;;;;;5044117;28;20052;-78
2022/02/19 11:23:09;;;;;;;4.20;1.42;;;;;;;;;;5029974;28;20045;-79
2022/02/19 11:25:55;;;;;;;3.72;2.38;;;;;;;;;;5010982;28;20060;-78
2022/02/19 11:28:42;;;;;;;4.43;2.38;;;;;;;;;;5026858;28;20050;-78
2022/02/19 11:31:30;;;;;;;7.22;1.85;;;;;;;;;;5027609;28;20041;-78
2022/02/19 11:34:11;;;;;;;1.98;1.88;;;;;;;;;;5034776;28;20049;-79
2022/02/19 11:36:54;;;;;;;3.50;1.27;;;;;;;;;;5030908;28;20037;-78
2022/02/19 11:39:59;;;;;;;4.75;2.47;;;;;;;;;;5025114;28;20474;-79
2022/02/19 11:42:56;;;;;;;5.90;2.40;;;;;;;;;;5045334;28;20060;-80
2022/02/19 11:45:43;;;;;;;3.28;2.10;;;;;;;;;;5041861;28;20041;-81
2022/02/19 11:48:33;;;;;;;3.33;1.55;;;;;;;;;;5020735;28;20057;-78
2022/02/19 11:51:27;;;;;;;3.15;1.40;;;;;;;;;;5035626;28;20053;-78
2022/02/19 11:54:19;;;;;;;5.85;2.95;;;;;;;;;;5030889;28;20049;-78
2022/02/19 11:57:25;;;;;;;4.13;1.98;;;;;;;;;;5039016;28;20045;-79
2022/02/19 12:00:14;;;;;;;7.47;1.48;;;;;;;;;;5045314;28;20045;-78
2022/02/19 12:03:20;;;;;;;9.68;1.95;;;;;;;;;;5036813;28;20061;-78
2022/02/19 12:06:16;;;;;;;2.63;1.75;;;;;;;;;;5054720;28;20051;-79
2022/02/19 12:09:15;;;;;;;3.50;2.08;;;;;;;;;;5048273;28;20041;-79
2022/02/19 12:12:03;;;;;;;2.92;1.40;;;;;;;;;;5045547;28;20040;-80
2022/02/19 12:15:01;;;;;;;2.80;2.13;;;;;;;;;;5044245;28;20072;-79
2022/02/19 12:17:47;;;;;;;3.70;2.05;;;;;;;;;;5034465;28;20053;-78
2022/02/19 12:20:31;;;;;;;7.53;2.97;;;;;;;;;;5036848;28;20044;-78
2022/02/19 12:23:17;;;;;;;4.70;1.67;;;;;;;;;;5042558;28;20033;-79
2022/02/19 12:26:11;;;;;;;7.53;1.80;;;;;;;;;;5049317;28;20044;-78
2022/02/19 12:29:18;;;;;;;2.97;1.73;;;;;;;;;;5046821;28;20048;-78
2022/02/19 12:32:12;;;;;;;6.30;1.90;;;;;;;;;;5036121;28;20064;-79
2022/02/19 12:35:16;;;;;;;5.15;1.40;;;;;;;;;;5036887;28;20538;-78
2022/02/19 12:38:02;;;;;;;2.92;2.10;;;;;;;;;;4994603;28;20069;-77
2022/02/19 12:40:50;;;;;;;1.05;1.05;;;;;;;;;;5038263;28;20779;-78
2022/02/19 12:43:34;;;;;;;1.55;1.45;;;;;;;;;;5046161;28;20045;-78
2022/02/19 12:46:20;;;;;;;4.40;2.33;;;;;;;;;;5047426;28;20055;-77
2022/02/19 12:49:03;;;;;;;2.50;1.23;;;;;;;;;;5043933;28;20038;-78
2022/02/19 12:51:48;;;;;;;7.38;1.90;;;;;;;;;;5043897;28;20123;-78
2022/02/19 12:54:42;;;;;;;1.92;1.83;;;;;;;;;;5046693;28;20060;-80
2022/02/19 12:57:26;;;;;;;2.55;1.35;;;;;;;;;;5024833;28;20053;-79
2022/02/19 13:00:13;;;;;;;1.17;1.10;;;;;;;;;;5032687;28;20407;-80
2022/02/19 13:03:05;;;;;;;5.97;1.70;;;;;;;;;;5027408;28;20041;-82
2022/02/19 13:05:52;;;;;;;10.23;1.70;;;;;;;;;;5040007;28;20052;-82
2022/02/19 13:08:39;;;;;;;5.78;1.65;;;;;;;;;;5033543;28;20041;-81
2022/02/19 13:11:21;;;;;;;5.75;2.40;;;;;;;;;;5047100;28;20049;-81
2022/02/19 13:14:08;;;;;;;3.22;2.70;;;;;;;;;;5045456;28;20047;-80
2022/02/19 13:16:58;;;;;;;10.20;5.00;;;;;;;;;;5029277;28;20043;-80
2022/02/19 13:19:42;;;;;;;3.00;2.30;;;;;;;;;;5051679;28;20033;-79
2022/02/19 13:22:26;;;;;;;3.40;1.30;;;;;;;;;;5060160;28;20043;-79
2022/02/19 13:25:16;;;;;;;2.88;2.20;;;;;;;;;;5037652;28;20052;-78
2022/02/19 13:28:08;;;;;;;3.17;1.70;;;;;;;;;;5039535;28;20464;-78
2022/02/19 13:30:49;;;;;;;;;;;;;;;;;;5051864;28;20045;-79
2022/02/19 13:33:36;;;;;;;6.32;2.75;;;;;;;;;;5043814;28;19921;-79
2022/02/19 13:36:33;;;;;;;9.43;1.33;;;;;;;;;;5044719;28;20064;-80
2022/02/19 13:39:36;;;;;;;4.82;2.00;;;;;;;;;;5033068;28;20048;-81
2022/02/19 13:42:21;;;;;;;1.63;1.42;;;;;;;;;;5046873;28;20056;-87
2022/02/19 13:45:09;;;;;;;2.72;1.55;;;;;;;;;;5052314;28;20048;-89
2022/02/19 13:48:04;;;;;;;4.50;1.38;;;;;;;;;;5044960;28;20482;-80
2022/02/19 13:50:59;;;;;;;7.15;2.42;;;;;;;;;;5031674;28;20401;-84
2022/02/19 13:53:49;;;;;;;2.45;1.40;;;;;;;;;;5049384;28;20425;-84
2022/02/19 13:56:40;;;;;;;1.77;1.67;;;;;;;;;;5048171;28;20401;-89
2022/02/19 14:00:10;;;;;;;2.65;1.65;;;;;;;;;;5047576;28;20037;-88
2022/02/19 14:03:03;;;;;;;1.70;1.23;;;;;;;;;;5035723;28;20053;-87
2022/02/19 14:05:58;;;;;;;2.72;1.23;;;;;;;;;;5062751;28;20068;-76
2022/02/19 14:08:51;;;;;;;2.30;2.05;;;;;;;;;;5003125;28;20804;-75
2022/02/19 14:11:39;;;;;;;2.10;1.63;;;;;;;;;;4998237;28;20037;-75
2022/02/19 14:14:35;;;;;;;6.07;2.58;;;;;;;;;;5012177;28;20053;-76
2022/02/19 14:17:29;;;;;;;1.65;1.17;;;;;;;;;;4996045;28;20038;-77
2022/02/19 14:20:14;;;;;;;1.38;1.20;;;;;;;;;;5000139;28;20049;-77
2022/02/19 14:23:00;;;;;;;11.85;2.75;;;;;;;;;;4978535;28;20054;-78
2022/02/19 14:25:57;;;;;;;9.45;1.60;;;;;;;;;;5024101;28;20056;-77
2022/02/19 14:28:39;;;;;;;5.43;2.03;;;;;;;;;;5002767;28;20045;-77
2022/02/19 14:31:22;;;;;;;5.35;1.88;;;;;;;;;;4999788;28;20038;-77
2022/02/19 14:34:18;;;;;;;5.53;2.10;;;;;;;;;;4991565;28;20072;-77
2022/02/19 14:37:20;;;;;;;10.52;2.47;;;;;;;;;;4990296;28;20050;-77
2022/02/19 14:40:05;;;;;;;5.55;1.98;;;;;;;;;;4995521;28;20042;-77
2022/02/19 14:42:50;;;;;;;2.75;1.95;;;;;;;;;;4992131;28;20069;-77
2022/02/19 14:45:40;;;;;;;2.58;2.38;;;;;;;;;;5005316;28;20073;-87
2022/02/19 14:48:31;;;;;;;1.00;1.00;;;;;;;;;;4990246;28;20043;-88
2022/02/19 14:51:24;;;;;;;2.22;1.45;;;;;;;;;;5009561;28;20042;-87
2022/02/19 14:54:07;;;;;;;1.30;1.27;;;;;;;;;;5008545;28;20053;-85
2022/02/19 14:56:57;;;;;;;3.63;1.00;;;;;;;;;;5008517;28;20046;-87
2022/02/19 14:59:51;;;;;;;1.50;1.40;;;;;;;;;;5008151;28;20532;-86
2022/02/19 15:02:40;;;;;;;1.90;1.42;;;;;;;;;;4992332;28;20053;-84
2022/02/19 15:05:24;;;;;;;4.88;1.75;;;;;;;;;;5004645;28;20053;-87
2022/02/19 15:08:12;;;;;;;1.77;1.45;;;;;;;;;;5039881;28;20541;-88
2022/02/19 15:10:57;;;;;;;3.92;1.48;;;;;;;;;;5045884;28;20056;-87
2022/02/19 15:13:53;;;;;;;3.95;1.88;;;;;;;;;;5026588;28;20482;-81
2022/02/19 15:16:42;;;;;;;2.00;1.40;;;;;;;;;;5041739;28;20041;-83
2022/02/19 15:19:38;;;;;;;5.10;3.30;;;;;;;;;;5037911;28;20045;-83
2022/02/19 15:22:17;;;;;;;;;;;;;;;;;;5026898;28;20041;-83
2022/02/19 15:25:10;;;;;;;3.65;1.17;;;;;;;;;;5028851;28;19925;-85
2022/02/19 15:27:56;;;;;;;3.67;1.67;;;;;;;;;;5019321;28;20056;-83
2022/02/19 15:30:37;;;;;;;3.60;1.33;;;;;;;;;;5047997;28;20055;-78
2022/02/19 15:33:21;;;;;;;4.50;1.90;;;;;;;;;;5050633;28;20045;-79
2022/02/19 15:36:17;;;;;;;1.92;1.70;;;;;;;;;;5020676;28;20056;-84
2022/02/19 15:39:00;;;;;;;2.78;1.60;;;;;;;;;;5030919;28;20426;-84
2022/02/19 15:41:39;;;;;;;6.60;1.45;;;;;;;;;;5047467;28;20644;-82
2022/02/19 15:44:25;;;;;;;2.72;1.58;;;;;;;;;;5048038;28;20040;-83
2022/02/19 15:47:09;;;;;;;1.23;1.23;;;;;;;;;;5048162;28;20100;-83
2022/02/19 15:49:57;;;;;;;5.63;1.38;;;;;;;;;;5031059;28;20056;-82
2022/02/19 15:52:51;;;;;;;3.72;1.73;;;;;;;;;;5048642;28;20120;-77
2022/02/19 15:55:35;;;;;;;2.45;1.20;;;;;;;;;;5059562;28;20048;-77
2022/02/19 15:58:31;;;;;;;1.88;1.73;;;;;;;;;;5041822;28;20068;-78
2022/02/19 16:01:23;;;;;;;4.32;2.00;;;;;;;;;;5041841;28;20529;-77
2022/02/19 16:04:10;;;;;;;2.38;1.23;;;;;;;;;;5028925;28;20060;-77
2022/02/19 16:07:13;;;;;;;3.35;2.35;;;;;;;;;;5028204;28;20060;-77
2022/02/19 16:09:59;;;;;;;7.00;3.45;;;;;;;;;;5052278;28;20048;-76
2022/02/19 16:12:43;;;;;;;3.33;1.80;;;;;;;;;;5062491;28;20048;-76
2022/02/19 16:15:26;;;;;;;1.55;1.45;;;;;;;;;;5062032;28;20044;-76
2022/02/19 16:18:10;;;;;;;2.83;1.55;;;;;;;;;;5050735;28;20041;-77
2022/02/19 16:20:58;;;;;;;4.50;1.80;;;;;;;;;;5047023;28;20080;-78
2022/02/19 16:23:45;;;;;;;1.88;1.20;;;;;;;;;;5047885;28;20041;-77
2022/02/19 16:26:27;;;;;;;2.63;2.42;;;;;;;;;;5047514;28;20048;-77
2022/02/19 16:29:10;;;;;;;2.67;1.33;;;;;;;;;;5046257;28;20060;-77
2022/02/19 16:31:54;;;;;;;7.60;1.75;;;;;;;;;;5029708;28;20050;-77
2022/02/19 16:34:41;;;;;;;2.28;2.08;;;;;;;;;;5035376;28;20352;-77
2022/02/19 16:37:23;;;;;;;6.43;2.03;;;;;;;;;;5011078;28;20045;-77
2022/02/19 16:40:07;;;;;;;1.95;1.35;;;;;;;;;;5034821;28;20053;-78
2022/02/19 16:42:50;;;;;;;2.53;1.35;;;;;;;;;;5048809;28;20681;-79
2022/02/19 16:45:35;;;;;;;1.35;1.10;;;;;;;;;;5066555;28;20051;-79
2022/02/19 16:48:26;;;;;;;4.13;1.45;;;;;;;;;;5067194;28;20378;-78
2022/02/19 16:51:09;;;;;;;3.42;1.77;;;;;;;;;;5061880;28;20049;-78
2022/02/19 16:54:14;;;;;;;3.70;2.38;;;;;;;;;;5053772;28;20049;-79
2022/02/19 16:56:56;;;;;;;9.07;4.57;;;;;;;;;;5048589;28;20045;-76
2022/02/19 16:59:39;;;;;;;1.83;1.17;;;;;;;;;;5052431;28;20041;-76
2022/02/19 17:02:08;;;;;;;7.70;1.88;;;;;;;;;;5022832;28;20049;-75
2022/02/19 17:04:43;;;;;;;5.47;3.40;;;;;;;;;;5047084;28;20398;-76